METAR Data
IDs: Format: Raw Decoded Include TAF

Data at: 1242 UTC 09 Dec 2019

MRPV 091200Z 11010KT 9999 FEW040 20/14 A3003 NOSIG

MROC 091200Z 11010G20KT 080V150 9999 FEW040 21/15 A2998 NOSIG

No METAR found for